Latest Coastal Weather Observations for Barrow Island

IDW60701

Issued at 7:33 am WST Thursday 25 May 2017 (issued every 10 minutes, with the page automatically refreshed every 10 minutes)

About coastal observations | Map of coastal stations | Coastal observations for WA | Marine services | Other Formats
Station Details ID: 005094 Name: BARROW ISLAND AIRPORT Lat: -20.87 Lon: 115.41 Height: 6.4 m
Data from the previous 72 hours. | See also: Recent months at Barrow Island
Date/Time
WST
Temp
°C
Wind Pressure Rain since
9am
mm
Weather Cloud Vis
km
Sea
Height
m
Swell
Dir  Spd
kts
Gust
kts
hPa Trend Height
m
Period
s
Dir
25/07:30am 23.8 SSE 9 10 1015.4 - 0.0 - - - - - - -
25/07:00am 23.1 S 8 9 1015.1 - 0.0 - - - - - - -
25/06:30am 22.9 SSE 9 11 1014.8 - 0.0 - - - - - - -
25/06:00am 22.7 S 10 11 1014.7 - 0.0 - - - - - - -
25/05:30am 22.8 S 11 13 1014.5 - 0.0 - - - - - - -
25/05:00am 22.8 SSE 11 12 1014.4 - 0.0 - - - - - - -
25/04:30am 22.7 S 10 11 1014.4 - 0.0 - - - - - - -
25/04:00am 23.1 SSE 9 11 1014.5 - 0.0 - - - - - - -
25/03:30am 23.5 S 13 15 1014.5 - 0.0 - - - - - - -
25/03:00am 23.7 S 10 11 1014.5 - 0.0 - - - - - - -
25/02:30am 23.6 S 8 9 1014.7 - 0.0 - - - - - - -
25/02:00am 23.7 S 8 9 1014.8 - 0.0 - - - - - - -
25/01:30am 23.8 S 8 9 1015.0 - 0.0 - - - - - - -
25/01:00am 23.9 S 9 10 1015.2 - 0.0 - - - - - - -
25/12:30am 24.0 S 10 11 1015.3 - 0.0 - - - - - - -
25/12:00am 24.0 S 10 12 1015.4 - 0.0 - - - - - - -
 
Date/Time
WST
Temp
°C
Wind Pressure Rain since
9am
mm
Weather Cloud Vis
km
Sea
Height
m
Swell
Dir  Spd
kts
Gust
kts
hPa Trend Height
m
Period
s
Dir
24/11:30pm 24.1 SSW 9 10 1015.6 - 0.0 - - - - - - -
24/11:00pm 24.1 S 9 11 1015.7 - 0.0 - - - - - - -
24/10:30pm 24.0 SSW 8 9 1015.6 - 0.0 - - - - - - -
24/10:00pm 23.8 SSW 8 9 1015.6 - 0.0 - - - - - - -
24/09:30pm 22.8 SSW 4 5 1015.7 - 0.0 - - - - - - -
24/09:00pm 21.4 SW 5 6 1015.8 - 0.0 - - - - - - -
24/08:30pm 21.5 WSW 5 6 1015.8 - 0.0 - - - - - - -
24/08:00pm 22.4 SSW 4 4 1015.7 - 0.0 - - - - - - -
24/07:30pm 23.8 S 4 5 1015.5 - 0.0 - - - - - - -
24/07:00pm 24.0 SSE 3 4 1015.2 - 0.0 - - - - - - -
24/06:30pm 24.1 S 4 5 1015.0 - 0.0 - - - - - - -
24/06:00pm 24.7 SW 4 7 1014.6 - 0.0 - - - - - - -
24/05:30pm 25.5 ESE 5 5 1014.2 - 0.0 - - - - - - -
24/05:00pm 26.1 E 4 5 1014.0 - 0.0 - - - - - - -
24/04:30pm 26.5 E 6 7 1013.8 - 0.0 - - - - - - -
24/04:00pm 27.0 ENE 7 8 1013.7 - 0.0 - - - - - - -
24/03:30pm 27.0 ENE 8 9 1013.7 - 0.0 - - - - - - -
24/03:00pm 27.1 ENE 8 10 1013.7 - 0.0 - - - - - - -
24/02:30pm 27.1 ENE 9 11 1013.7 - 0.0 - - - - - - -
24/02:00pm 27.2 ENE 9 11 1014.0 - 0.0 - - - - - - -
24/01:30pm 27.1 ENE 10 12 1014.3 - 0.0 - - - - - - -
24/01:00pm 27.2 ENE 11 13 1014.7 - 0.0 - - - - - - -
24/12:30pm 26.9 ENE 12 14 1015.1 - 0.0 - - - - - - -
24/12:00pm 27.0 ENE 11 13 1015.5 - 0.0 - - - - - - -
24/11:30am 26.7 E 11 13 1016.0 - 0.0 - - - - - - -
24/11:00am 26.5 E 10 12 1016.2 - 0.0 - - - - - - -
24/10:30am 26.7 E 7 9 1016.5 - 0.0 - - - - - - -
24/10:00am 26.5 E 7 9 1016.6 - 0.0 - - - - - - -
24/09:30am 25.9 E 9 11 1016.7 - 0.0 - - - - - - -
24/09:00am 25.0 ESE 9 10 1016.6 - 0.0 - - - - - - -
24/08:30am 24.9 SE 8 9 1016.4 - 0.0 - - - - - - -
24/08:00am 24.1 SE 7 8 1016.2 - 0.0 - - - - - - -
24/07:30am 23.2 SSE 7 8 1015.8 - 0.0 - - - - - - -
24/07:00am 22.6 SE 6 7 1015.5 - 0.0 - - - - - - -
24/06:30am 22.4 SE 6 7 1015.3 - 0.0 - - - - - - -
24/06:00am 22.5 SE 6 7 1015.1 - 0.0 - - - - - - -
24/05:30am 22.6 SE 7 9 1014.9 - 0.0 - - - - - - -
24/05:00am 22.8 ESE 7 8 1014.7 - 0.0 - - - - - - -
24/04:30am 22.7 ESE 7 8 1014.7 - 0.0 - - - - - - -
24/04:00am 22.7 SSE 7 9 1014.6 - 0.0 - - - - - - -
24/03:30am 22.7 SSE 6 7 1014.7 - 0.0 - - - - - - -
24/03:00am 22.9 SSE 7 8 1014.8 - 0.0 - - - - - - -
24/02:30am 23.1 SSE 8 10 1014.8 - 0.0 - - - - - - -
24/02:00am 23.2 SSE 9 10 1015.2 - 0.0 - - - - - - -
24/01:30am 23.1 SSE 9 10 1015.4 - 0.0 - - - - - - -
24/01:00am 23.2 S 10 11 1015.6 - 0.0 - - - - - - -
24/12:30am 22.7 S 7 9 1015.7 - 0.0 - - - - - - -
24/12:00am 21.5 SSW 4 5 1015.8 - 0.0 - - - - - - -
 
Date/Time
WST
Temp
°C
Wind Pressure Rain since
9am
mm
Weather Cloud Vis
km
Sea
Height
m
Swell
Dir  Spd
kts
Gust
kts
hPa Trend Height
m
Period
s
Dir
23/11:30pm 21.6 S 4 4 1016.0 - 0.0 - - - - - - -
23/11:00pm 20.9 SW 3 4 1016.2 - 0.0 - - - - - - -
23/10:30pm 20.8 SW 3 4 1016.2 - 0.0 - - - - - - -
23/10:00pm 20.3 WSW 4 4 1016.1 - 0.0 - - - - - - -
23/09:30pm 20.2 WSW 4 5 1016.0 - 0.0 - - - - - - -
23/09:00pm 20.5 CALM 0 2 1015.8 - 0.0 - - - - - - -
23/08:30pm 21.6 SW 3 4 1015.6 - 0.0 - - - - - - -
23/08:00pm 21.9 CALM 0 0 1015.4 - 0.0 - - - - - - -
23/07:30pm 21.9 N 3 4 1015.2 - 0.0 - - - - - - -
23/07:00pm 22.6 NNE 5 6 1014.8 - 0.0 - - - - - - -
23/06:30pm 22.7 NNE 5 6 1014.6 - 0.0 - - - - - - -
23/06:00pm 24.0 N 5 7 1014.3 - 0.0 - - - - - - -
23/05:30pm 25.3 NE 9 11 1014.0 - 0.0 - - - - - - -
23/05:00pm 26.2 NNE 12 15 1013.6 - 0.0 - - - - - - -
23/04:30pm 26.8 NNE 13 15 1013.5 - 0.0 - - - - - - -
23/04:00pm 27.3 NNE 14 18 1013.5 - 0.0 - - - - - - -
23/03:30pm 27.4 NE 13 15 1013.6 - 0.0 - - - - - - -
23/03:00pm 27.4 NE 14 16 1013.7 - 0.0 - - - - - - -
23/02:30pm 27.4 NE 11 13 1013.9 - 0.0 - - - - - - -
23/02:00pm 27.5 ENE 10 12 1014.2 - 0.0 - - - - - - -
23/01:30pm 27.3 ENE 11 13 1014.6 - 0.0 - - - - - - -
23/01:00pm 27.4 E 9 11 1015.2 - 0.0 - - - - - - -
23/12:30pm 27.5 E 6 8 1015.7 - 0.0 - - - - - - -
23/12:00pm 26.2 ESE 8 9 1016.1 - 0.0 - - - - - - -
23/11:30am 25.7 ESE 8 10 1016.3 - 0.0 - - - - - - -
23/11:00am 26.4 ESE 8 9 1016.7 - 0.0 - - - - - - -
23/10:30am 25.7 E 10 11 1016.9 - 0.0 - - - - - - -
23/10:00am 24.9 ESE 9 10 1017.3 - 0.0 - - - - - - -
23/09:30am 24.3 ESE 10 12 1017.5 - 0.0 - - - - - - -
23/09:00am 23.5 SE 10 12 1017.3 - 0.0 - - - - - - -
23/08:30am 22.7 SSE 12 14 1017.1 - 0.0 - - - - - - -
23/08:00am 22.4 SSE 12 14 1016.7 - 0.0 - - - - - - -
23/07:30am 21.7 S 13 15 1016.2 - 0.0 - - - - - - -
23/07:00am 21.3 SSE 12 14 1015.9 - 0.0 - - - - - - -
23/06:30am 21.4 S 12 14 1015.8 - 0.0 - - - - - - -
23/06:00am 21.3 S 14 15 1015.6 - 0.0 - - - - - - -
23/05:30am 21.4 S 14 16 1015.4 - 0.0 - - - - - - -
23/05:00am 21.5 S 13 15 1015.3 - 0.0 - - - - - - -
23/04:30am 21.6 S 14 16 1015.3 - 0.0 - - - - - - -
23/04:00am 21.9 S 16 18 1015.3 - 0.0 - - - - - - -
23/03:30am 22.3 S 15 17 1015.1 - 0.0 - - - - - - -
23/03:00am 22.4 S 16 18 1015.2 - 0.0 - - - - - - -
23/02:30am 22.4 S 14 16 1015.4 - 0.0 - - - - - - -
23/02:00am 22.8 S 14 16 1015.7 - 0.0 - - - - - - -
23/01:30am 22.9 S 12 14 1015.8 - 0.0 - - - - - - -
23/01:00am 23.0 S 10 12 1016.1 - 0.0 - - - - - - -
23/12:30am 23.1 S 14 16 1016.2 - 0.0 - - - - - - -
23/12:00am 23.4 S 12 14 1016.2 - 0.0 - - - - - - -
 
Date/Time
WST
Temp
°C
Wind Pressure Rain since
9am
mm
Weather Cloud Vis
km
Sea
Height
m
Swell
Dir  Spd
kts
Gust
kts
hPa Trend Height
m
Period
s
Dir
22/11:30pm 23.6 S 13 15 1016.4 - 0.0 - - - - - - -
22/11:00pm 23.6 SSW 12 15 1016.5 - 0.0 - - - - - - -
22/10:30pm 23.7 SSW 13 15 1016.6 - 0.0 - - - - - - -
22/10:00pm 23.9 SSW 15 18 1016.3 - 0.0 - - - - - - -
22/09:30pm 23.7 SW 16 18 1016.3 - 0.0 - - - - - - -
22/09:00pm 23.7 SW 16 19 1016.1 - 0.0 - - - - - - -
22/08:30pm 23.6 SW 16 19 1015.9 - 0.0 - - - - - - -
22/08:00pm 23.5 SW 15 18 1015.6 - 0.0 - - - - - - -
22/07:30pm 23.6 SW 15 17 1015.3 - 0.0 - - - - - - -
22/07:00pm 23.0 WSW 10 14 1015.0 - 0.0 - - - - - - -
22/06:30pm 22.2 WSW 8 9 1014.8 - 0.0 - - - - - - -
22/06:00pm 22.5 WSW 7 9 1014.6 - 0.0 - - - - - - -
22/05:30pm 23.9 SW 9 11 1014.4 - 0.0 - - - - - - -
22/05:00pm 24.8 SW 10 12 1014.2 - 0.0 - - - - - - -
22/04:30pm 25.2 SW 11 12 1014.2 - 0.0 - - - - - - -
22/04:00pm 25.4 SW 11 13 1014.1 - 0.0 - - - - - - -
22/03:30pm 25.5 SSW 10 13 1014.2 - 0.0 - - - - - - -
22/03:00pm 25.6 SSW 10 12 1014.3 - 0.0 - - - - - - -
22/02:30pm 25.8 SSW 10 12 1014.4 - 0.0 - - - - - - -
22/02:00pm 25.7 SSW 11 14 1014.6 - 0.0 - - - - - - -
22/01:30pm 26.3 S 10 12 1015.1 - 0.0 - - - - - - -
22/01:00pm 26.4 S 9 12 1015.6 - 0.0 - - - - - - -
22/12:30pm 26.2 S 9 11 1016.1 - 0.0 - - - - - - -
22/12:00pm 25.8 SSE 10 12 1016.4 - 0.0 - - - - - - -
22/11:30am 25.6 SE 12 14 1016.9 - 0.0 - - - - - - -
22/11:00am 25.3 SE 14 16 1017.2 - 0.0 - - - - - - -
22/10:30am 24.7 SE 15 17 1017.3 - 0.0 - - - - - - -
22/10:00am 23.8 SSE 15 18 1017.4 - 0.0 - - - - - - -
22/09:30am 22.8 SSE 18 21 1017.5 - 0.0 - - - - - - -
22/09:00am 22.2 SSE 19 22 1017.3 - 0.0 - - - - - - -
22/08:30am 21.7 SSE 18 21 1017.1 - 0.0 - - - - - - -
22/08:00am 21.3 SSE 17 21 1017.0 - 0.0 - - - - - - -

Other Formats:

Comma delimited format used in spreadsheet applications
http://www.bom.gov.au/fwo/IDW60701/IDW60701.95304.axf

JavaScript Object Notation format (JSON) in row-major order
http://www.bom.gov.au/fwo/IDW60701/IDW60701.95304.json